Accueil
METAR-TAF:

METAR-TAF

Aéroports :

Albert, France

Aéroport Albert-Picardie

latitude: 49-58-21N, longitude: 002-41-29E, altitude: 111 m

Observation

Le bulletin a été fait il y a 16 minutes, à 08:30 UTC
Vent 11 kt de ouest/nord-ouest
Température 17°C
Humidité 72%
Pression 1020 hPa
Visibilité: 9000 m
Quelques nuages à une hauteur de 1700 ft

METAR: LFAQ 230830Z AUTO 30011KT 9000 FEW017 17/12 Q1020 NOSIG

Heure: 10:46 (08:46 UTC)

Prévision

Le bulletin a été fait il y a 46 minutes, à 08:00 UTC
Prévision valable du 23 à 09 UTC au 23 à 18 UTC
Vent 10 kt de ouest/nord-ouest
Visibilité 10 km ou plus
Nuages épars à une hauteur de 1600 ft

TAF: LFAQ 230800Z 2309/2318 30010KT 9999 SCT016

Observations et prévisions météorologiques de plus de 4000 aéroports (messages METAR et TAF).

Les stations disponibles sont représentées par des disques jaunes et rouges sur la carte.

Passer la souris dessus pour voir le nom de la station.

Cliquer dessus pour voir les observations et prévisions météorologiques.

Pour changer de carte: cliquez sur les boutons verts avec une croix noire pour zoomer, sur le bouton vert avec un tiret pour effectuer un zoom arrière, ou sur les flèches vertes pour les cartes adjacentes.


METAR-TAF: